createdAt,value
2018-06-28T00:02:15.965Z,19.20
2018-06-28T00:04:45.288Z,19.10
2018-06-28T00:07:14.668Z,19.10
2018-06-28T00:09:43.876Z,19.10
2018-06-28T00:12:13.380Z,19.10
2018-06-28T00:14:42.554Z,19.00
2018-06-28T00:17:11.681Z,18.90
2018-06-28T00:19:40.990Z,18.90
2018-06-28T00:22:10.198Z,18.90
2018-06-28T00:24:39.396Z,18.90
2018-06-28T00:27:08.840Z,18.90
2018-06-28T00:29:37.992Z,18.90
2018-06-28T00:32:07.128Z,18.80
2018-06-28T00:34:36.223Z,18.80
2018-06-28T00:37:05.398Z,18.80
2018-06-28T00:39:34.704Z,18.70
2018-06-28T00:42:04.104Z,18.70
2018-06-28T00:44:33.167Z,18.80
2018-06-28T00:47:02.252Z,18.70
2018-06-28T00:49:31.458Z,18.80
2018-06-28T00:52:00.848Z,18.70
2018-06-28T00:54:30.196Z,18.80
2018-06-28T00:56:59.676Z,18.70
2018-06-28T00:59:28.788Z,18.70
2018-06-28T01:01:57.983Z,18.60
2018-06-28T01:04:27.132Z,18.60
2018-06-28T01:06:56.334Z,18.50
2018-06-28T01:09:25.932Z,18.30
2018-06-28T01:11:55.198Z,18.40
2018-06-28T01:14:24.400Z,18.30
2018-06-28T01:16:53.588Z,18.20
2018-06-28T01:19:22.866Z,18.20
2018-06-28T01:21:52.187Z,18.10
2018-06-28T01:24:21.747Z,18.10
2018-06-28T01:26:51.148Z,18.10
2018-06-28T01:29:20.300Z,18.10
2018-06-28T01:31:49.650Z,17.90
2018-06-28T01:34:18.835Z,17.90
2018-06-28T01:36:48.037Z,17.80
2018-06-28T01:39:17.360Z,17.80
2018-06-28T01:41:57.668Z,17.70
2018-06-28T01:44:27.056Z,17.70
2018-06-28T01:46:56.279Z,17.60
2018-06-28T01:49:25.991Z,17.60
2018-06-28T01:51:55.051Z,17.60
2018-06-28T01:54:24.134Z,17.50
2018-06-28T01:56:53.303Z,17.50
2018-06-28T01:59:22.812Z,17.50
2018-06-28T02:01:52.236Z,17.50
2018-06-28T02:04:21.476Z,17.40
2018-06-28T02:06:50.860Z,17.50
2018-06-28T02:09:20.087Z,17.40
2018-06-28T02:11:49.268Z,17.40
2018-06-28T02:14:18.388Z,17.50
2018-06-28T02:16:47.926Z,17.40
2018-06-28T02:19:17.188Z,17.40
2018-06-28T02:21:46.342Z,17.40
2018-06-28T02:24:15.360Z,17.30
2018-06-28T02:26:44.434Z,17.30
2018-06-28T02:29:13.640Z,17.20
2018-06-28T02:31:42.955Z,17.10
2018-06-28T02:34:12.122Z,17.10
2018-06-28T02:36:41.421Z,17.10
2018-06-28T02:39:10.717Z,17.10
2018-06-28T02:41:40.089Z,17.00
2018-06-28T02:44:09.292Z,17.00
2018-06-28T02:46:38.639Z,17.00
2018-06-28T02:49:07.858Z,16.90
2018-06-28T02:51:36.944Z,17.00
2018-06-28T02:54:06.153Z,17.00
2018-06-28T02:56:36.130Z,16.90
2018-06-28T02:59:05.851Z,16.80
2018-06-28T03:01:35.498Z,16.80
2018-06-28T03:04:05.421Z,16.80
2018-06-28T03:06:35.161Z,16.80
2018-06-28T03:09:06.826Z,16.70
2018-06-28T03:11:36.651Z,16.70
2018-06-28T03:14:06.491Z,16.60
2018-06-28T03:16:36.418Z,16.60
2018-06-28T03:19:06.355Z,16.50
2018-06-28T03:21:36.453Z,16.60
2018-06-28T03:24:06.489Z,16.60
2018-06-28T03:26:37.734Z,16.50
2018-06-28T03:29:07.297Z,16.50
2018-06-28T03:31:37.117Z,16.50
2018-06-28T03:34:07.149Z,16.40
2018-06-28T03:36:37.077Z,16.50
2018-06-28T03:39:10.327Z,16.50
2018-06-28T03:41:40.815Z,16.60
2018-06-28T03:44:12.295Z,16.70
2018-06-28T03:46:42.709Z,16.70
2018-06-28T03:49:13.749Z,16.70
2018-06-28T03:51:44.167Z,16.70
2018-06-28T03:54:14.563Z,16.70
2018-06-28T03:56:44.441Z,16.60
2018-06-28T03:59:14.338Z,16.70
2018-06-28T04:01:44.587Z,16.70
2018-06-28T04:04:14.807Z,16.70
2018-06-28T04:06:44.620Z,16.70
2018-06-28T04:09:14.453Z,16.80
2018-06-28T04:11:44.159Z,16.80
2018-06-28T04:14:13.947Z,16.70
2018-06-28T04:16:44.006Z,16.70
2018-06-28T04:19:13.963Z,16.80
2018-06-28T04:21:45.725Z,16.80
2018-06-28T04:24:16.029Z,16.90
2018-06-28T04:26:46.139Z,16.90
2018-06-28T04:29:17.028Z,17.00
2018-06-28T04:31:46.731Z,17.00
2018-06-28T04:34:17.369Z,17.00
2018-06-28T04:36:47.265Z,17.10
2018-06-28T04:39:17.845Z,17.10
2018-06-28T04:41:48.033Z,17.20
2018-06-28T04:44:17.973Z,17.30
2018-06-28T04:46:48.265Z,17.40
2018-06-28T04:49:18.150Z,17.50
2018-06-28T04:51:48.078Z,17.70
2018-06-28T04:54:18.591Z,17.70
2018-06-28T04:56:48.426Z,17.90
2018-06-28T04:59:18.337Z,17.90
2018-06-28T05:01:49.336Z,18.10
2018-06-28T05:04:19.747Z,18.40
2018-06-28T05:06:49.640Z,18.50
2018-06-28T05:09:20.282Z,18.60
2018-06-28T05:11:50.247Z,18.80
2018-06-28T05:14:20.027Z,18.90
2018-06-28T05:16:49.679Z,19.10
2018-06-28T05:19:19.521Z,19.30
2018-06-28T05:21:49.401Z,19.50
2018-06-28T05:24:19.413Z,19.70
2018-06-28T05:26:49.543Z,19.90
2018-06-28T05:29:19.640Z,20.00
2018-06-28T05:31:50.521Z,20.10
2018-06-28T05:34:20.848Z,20.20
2018-06-28T05:36:50.777Z,20.30
2018-06-28T05:39:21.241Z,20.60
2018-06-28T05:41:55.018Z,20.60
2018-06-28T05:44:26.031Z,20.70
2018-06-28T05:46:56.149Z,20.90
2018-06-28T05:49:26.439Z,20.90
2018-06-28T05:51:56.621Z,21.20
2018-06-28T05:54:26.551Z,21.30
2018-06-28T05:56:56.708Z,21.40
2018-06-28T05:59:27.089Z,21.80
2018-06-28T06:01:57.627Z,21.80
2018-06-28T06:04:28.030Z,21.90
2018-06-28T06:06:57.896Z,21.90
2018-06-28T06:09:27.682Z,22.10
2018-06-28T06:11:57.610Z,22.00
2018-06-28T06:14:27.462Z,22.10
2018-06-28T06:16:57.170Z,22.10
2018-06-28T06:19:27.240Z,22.20
2018-06-28T06:21:57.794Z,22.30
2018-06-28T06:24:28.212Z,22.20
2018-06-28T06:26:58.214Z,22.40
2018-06-28T06:29:28.013Z,22.60
2018-06-28T06:31:58.036Z,22.70
2018-06-28T06:34:28.015Z,23.00
2018-06-28T06:36:58.264Z,23.30
2018-06-28T06:39:28.186Z,23.50
2018-06-28T06:41:58.818Z,23.70
2018-06-28T06:44:29.144Z,24.30
2018-06-28T06:46:59.068Z,24.50
2018-06-28T06:49:29.021Z,24.50
2018-06-28T06:51:59.161Z,24.70
2018-06-28T06:54:29.447Z,24.70
2018-06-28T06:56:59.523Z,24.90
2018-06-28T06:59:29.887Z,25.00
2018-06-28T07:01:59.964Z,24.80
2018-06-28T07:04:29.463Z,24.50
2018-06-28T07:06:59.392Z,24.40
2018-06-28T07:09:29.186Z,24.90
2018-06-28T07:11:59.303Z,25.10
2018-06-28T07:14:29.162Z,25.10
2018-06-28T07:16:59.023Z,25.20
2018-06-28T07:19:29.032Z,25.40
2018-06-28T07:21:59.094Z,25.70
2018-06-28T07:24:29.242Z,26.00
2018-06-28T07:26:59.254Z,26.10
2018-06-28T07:29:28.982Z,26.30
2018-06-28T07:31:59.397Z,26.40
2018-06-28T07:34:29.698Z,26.60
2018-06-28T07:36:59.854Z,26.60
2018-06-28T07:39:30.343Z,26.70
2018-06-28T07:42:00.404Z,26.80
2018-06-28T07:44:30.562Z,27.00
2018-06-28T07:47:00.491Z,27.40
2018-06-28T07:49:30.439Z,27.50
2018-06-28T07:52:00.622Z,27.70
2018-06-28T07:54:30.534Z,27.70
2018-06-28T07:57:00.450Z,27.60
2018-06-28T07:59:30.147Z,27.70
2018-06-28T08:01:59.957Z,27.40
2018-06-28T08:04:30.207Z,27.40
2018-06-28T08:07:00.153Z,27.50
2018-06-28T08:09:29.885Z,27.40
2018-06-28T08:11:59.887Z,27.40
2018-06-28T08:14:29.463Z,27.50
2018-06-28T08:16:59.194Z,27.50
2018-06-28T08:19:28.776Z,27.60
2018-06-28T08:21:58.714Z,27.50
2018-06-28T08:24:28.578Z,27.50
2018-06-28T08:26:58.703Z,27.40
2018-06-28T08:29:28.626Z,27.50
2018-06-28T08:31:58.628Z,27.60
2018-06-28T08:34:28.598Z,27.70
2018-06-28T08:36:58.492Z,27.80
2018-06-28T08:39:28.866Z,28.00
2018-06-28T08:41:58.884Z,28.00
2018-06-28T08:44:29.165Z,27.90
2018-06-28T08:46:59.084Z,27.90
2018-06-28T08:49:29.189Z,27.70
2018-06-28T08:52:05.618Z,27.60
2018-06-28T08:54:35.445Z,27.70
2018-06-28T08:57:05.676Z,27.90
2018-06-28T08:59:35.665Z,27.90
2018-06-28T09:02:05.756Z,27.70
2018-06-28T09:04:36.298Z,27.70
2018-06-28T09:07:06.602Z,27.80
2018-06-28T09:09:36.708Z,27.80
2018-06-28T09:12:06.674Z,27.90
2018-06-28T09:14:36.650Z,28.00
2018-06-28T09:17:06.612Z,28.10
2018-06-28T09:19:36.795Z,27.90
2018-06-28T09:22:06.584Z,27.90
2018-06-28T09:24:36.696Z,27.90
2018-06-28T09:27:06.663Z,28.00
2018-06-28T09:29:37.017Z,28.10
2018-06-28T09:32:07.024Z,28.20
2018-06-28T09:34:36.820Z,28.40
2018-06-28T09:37:06.736Z,28.40
2018-06-28T09:39:36.635Z,28.30
2018-06-28T09:42:08.004Z,28.10
2018-06-28T09:44:37.859Z,28.10
2018-06-28T09:47:07.876Z,28.10
2018-06-28T09:49:37.657Z,28.10
2018-06-28T09:52:07.214Z,28.20
2018-06-28T09:54:37.316Z,28.30
2018-06-28T09:57:07.222Z,28.40
2018-06-28T09:59:36.929Z,28.60
2018-06-28T10:02:06.898Z,28.60
2018-06-28T10:04:36.967Z,28.40
2018-06-28T10:07:07.541Z,28.50
2018-06-28T10:09:37.533Z,28.50
2018-06-28T10:12:07.111Z,28.20
2018-06-28T10:14:36.774Z,28.20
2018-06-28T10:17:06.898Z,28.20
2018-06-28T10:19:36.835Z,28.10
2018-06-28T10:22:06.645Z,28.10
2018-06-28T10:24:36.813Z,28.30
2018-06-28T10:27:07.201Z,28.60
2018-06-28T10:29:37.163Z,28.60
2018-06-28T10:32:07.394Z,28.80
2018-06-28T10:34:37.038Z,28.80
2018-06-28T10:37:07.278Z,28.90
2018-06-28T10:39:36.923Z,28.60
2018-06-28T10:42:06.891Z,28.80
2018-06-28T10:44:36.718Z,28.70
2018-06-28T10:47:08.005Z,28.70
2018-06-28T10:49:37.933Z,28.90
2018-06-28T10:52:08.045Z,28.80
2018-06-28T10:54:38.171Z,28.70
2018-06-28T10:57:07.743Z,28.60
2018-06-28T10:59:37.673Z,28.80
2018-06-28T11:02:07.343Z,28.70
2018-06-28T11:04:36.942Z,28.80
2018-06-28T11:07:06.825Z,28.90
2018-06-28T11:09:36.696Z,29.10
2018-06-28T11:12:06.841Z,29.10
2018-06-28T11:14:36.991Z,28.90
2018-06-28T11:17:06.787Z,28.80
2018-06-28T11:19:36.686Z,28.90
2018-06-28T11:22:06.655Z,29.00
2018-06-28T11:24:36.678Z,28.90
2018-06-28T11:27:06.629Z,28.90
2018-06-28T11:29:36.769Z,29.00
2018-06-28T11:32:06.904Z,29.10
2018-06-28T11:34:36.821Z,29.20
2018-06-28T11:37:06.729Z,29.30
2018-06-28T11:39:36.503Z,29.40
2018-06-28T11:42:06.624Z,29.40
2018-06-28T11:44:36.760Z,29.30
2018-06-28T11:47:06.922Z,29.10
2018-06-28T11:49:37.056Z,29.10
2018-06-28T11:52:06.838Z,29.10
2018-06-28T11:54:36.689Z,29.20
2018-06-28T11:57:06.558Z,29.10
2018-06-28T11:59:36.426Z,29.10
2018-06-28T12:02:06.068Z,29.30
2018-06-28T12:04:35.828Z,29.10
2018-06-28T12:07:05.915Z,29.40
2018-06-28T12:09:35.702Z,29.50
2018-06-28T12:12:05.925Z,29.70
2018-06-28T12:14:35.748Z,29.90
2018-06-28T12:17:05.763Z,29.80
2018-06-28T12:19:35.456Z,29.80
2018-06-28T12:22:05.230Z,29.80
2018-06-28T12:24:35.401Z,29.60
2018-06-28T12:27:05.237Z,29.60
2018-06-28T12:29:34.551Z,29.40
2018-06-28T12:32:04.396Z,29.20
2018-06-28T12:34:34.397Z,29.20
2018-06-28T12:37:04.373Z,29.20
2018-06-28T12:39:34.333Z,29.20
2018-06-28T12:42:04.247Z,29.30
2018-06-28T12:44:34.235Z,29.20
2018-06-28T12:47:42.659Z,29.40
2018-06-28T12:50:12.291Z,29.40
2018-06-28T12:52:47.099Z,29.60
2018-06-28T12:55:18.004Z,29.80
2018-06-28T12:57:48.199Z,29.90
2018-06-28T13:00:18.590Z,29.90
2018-06-28T13:02:48.427Z,29.70
2018-06-28T13:05:18.791Z,29.60
2018-06-28T13:07:48.951Z,29.80
2018-06-28T13:10:19.517Z,29.90
2018-06-28T13:12:49.392Z,30.00
2018-06-28T13:15:19.435Z,29.80
2018-06-28T13:17:49.463Z,29.70
2018-06-28T13:20:19.371Z,29.60
2018-06-28T13:22:49.566Z,29.70
2018-06-28T13:25:19.531Z,29.80
2018-06-28T13:27:49.367Z,29.80
2018-06-28T13:30:19.854Z,30.00
2018-06-28T13:32:50.552Z,30.10
2018-06-28T13:35:20.325Z,30.30
2018-06-28T13:37:50.097Z,30.10
2018-06-28T13:40:20.465Z,30.20
2018-06-28T13:42:50.381Z,29.90
2018-06-28T13:45:19.835Z,29.70
2018-06-28T13:47:49.431Z,29.60
2018-06-28T13:50:19.388Z,29.80
2018-06-28T13:52:49.317Z,29.60
2018-06-28T13:55:19.405Z,29.70
2018-06-28T13:57:49.969Z,29.60
2018-06-28T14:00:20.409Z,29.80
2018-06-28T14:02:50.647Z,29.90
2018-06-28T14:05:20.517Z,29.70
2018-06-28T14:07:50.688Z,30.10
2018-06-28T14:10:20.533Z,30.30
2018-06-28T14:12:50.983Z,30.40
2018-06-28T14:15:20.906Z,30.20
2018-06-28T14:17:52.967Z,30.10
2018-06-28T14:20:23.349Z,30.10
2018-06-28T14:22:53.905Z,30.20
2018-06-28T14:25:24.549Z,30.40
2018-06-28T14:27:56.452Z,30.30
2018-06-28T14:30:27.197Z,30.30
2018-06-28T14:32:59.754Z,30.10
2018-06-28T14:35:29.818Z,30.20
2018-06-28T14:37:59.711Z,30.30
2018-06-28T14:40:29.661Z,30.40
2018-06-28T14:43:03.809Z,30.50
2018-06-28T14:45:34.564Z,30.30
2018-06-28T14:48:04.933Z,30.10
2018-06-28T14:50:34.928Z,30.10
2018-06-28T14:53:05.054Z,30.20
2018-06-28T14:55:34.917Z,30.20
2018-06-28T14:58:05.165Z,30.30
2018-06-28T15:00:36.251Z,30.30
2018-06-28T15:03:06.334Z,30.50
2018-06-28T15:05:36.393Z,30.60
2018-06-28T15:08:06.928Z,30.80
2018-06-28T15:10:36.869Z,30.60
2018-06-28T15:13:07.098Z,30.50
2018-06-28T15:15:37.008Z,30.50
2018-06-28T15:18:11.594Z,30.50
2018-06-28T15:20:42.400Z,30.60
2018-06-28T15:23:12.380Z,30.60
2018-06-28T15:25:42.542Z,30.60
2018-06-28T15:28:12.878Z,30.40
2018-06-28T15:30:42.441Z,30.20
2018-06-28T15:33:12.293Z,30.20
2018-06-28T15:35:43.000Z,30.40
2018-06-28T15:38:12.572Z,30.50
2018-06-28T15:40:42.453Z,30.30
2018-06-28T15:43:12.366Z,30.10
2018-06-28T15:45:42.518Z,30.00
2018-06-28T15:48:16.781Z,30.00
2018-06-28T15:50:47.026Z,30.00
2018-06-28T15:53:16.804Z,30.20
2018-06-28T15:55:46.598Z,30.20
2018-06-28T15:58:16.895Z,30.30
2018-06-28T16:00:46.955Z,30.40
2018-06-28T16:03:17.125Z,30.20
2018-06-28T16:05:47.053Z,30.10
2018-06-28T16:08:17.415Z,30.30
2018-06-28T16:10:47.487Z,30.30
2018-06-28T16:13:17.843Z,30.30
2018-06-28T16:15:47.644Z,30.10
2018-06-28T16:18:17.297Z,30.00
2018-06-28T16:20:47.399Z,30.00
2018-06-28T16:23:17.397Z,29.70
2018-06-28T16:25:49.524Z,29.70
2018-06-28T16:28:20.550Z,29.40
2018-06-28T16:30:51.163Z,29.60
2018-06-28T16:33:21.093Z,29.70
2018-06-28T16:35:51.117Z,29.80
2018-06-28T16:38:22.060Z,29.70
2018-06-28T16:40:52.066Z,29.70
2018-06-28T16:43:22.157Z,29.70
2018-06-28T16:45:52.580Z,29.70
2018-06-28T16:48:22.597Z,29.50
2018-06-28T16:50:52.394Z,29.50
2018-06-28T16:53:22.220Z,29.60
2018-06-28T16:55:52.311Z,29.70
2018-06-28T16:58:22.184Z,29.80
2018-06-28T17:00:52.762Z,29.90
2018-06-28T17:03:22.892Z,29.90
2018-06-28T17:05:52.603Z,29.70
2018-06-28T17:08:23.754Z,29.70
2018-06-28T17:10:54.339Z,29.60
2018-06-28T17:13:24.973Z,29.30
2018-06-28T17:15:57.000Z,29.20
2018-06-28T17:18:29.662Z,29.10
2018-06-28T17:21:01.806Z,29.10
2018-06-28T17:23:32.194Z,29.10
2018-06-28T17:26:03.731Z,29.00
2018-06-28T17:28:34.889Z,29.00
2018-06-28T17:31:06.842Z,29.00
2018-06-28T17:33:39.108Z,29.00
2018-06-28T17:36:20.696Z,29.00
2018-06-28T17:38:54.306Z,28.80
2018-06-28T17:41:28.839Z,28.80
2018-06-28T17:44:07.104Z,28.80
2018-06-28T17:46:41.511Z,28.80
2018-06-28T17:49:13.850Z,28.80
2018-06-28T17:51:45.296Z,28.70
2018-06-28T17:54:17.282Z,28.60
2018-06-28T17:56:49.090Z,28.60
2018-06-28T17:59:20.841Z,28.50
2018-06-28T18:01:51.958Z,28.50
2018-06-28T18:04:25.113Z,28.40
2018-06-28T18:06:58.958Z,28.40
2018-06-28T18:09:32.964Z,28.30
2018-06-28T18:12:04.346Z,28.20
2018-06-28T18:14:37.269Z,28.10
2018-06-28T18:17:09.940Z,28.00
2018-06-28T18:19:42.525Z,27.90
2018-06-28T18:22:14.971Z,27.90
2018-06-28T18:24:47.577Z,27.80
2018-06-28T18:27:19.542Z,27.80
2018-06-28T18:29:51.530Z,27.80
2018-06-28T18:32:22.712Z,27.70
2018-06-28T18:34:54.127Z,27.70
2018-06-28T18:37:25.471Z,27.70
2018-06-28T18:40:03.908Z,27.60
2018-06-28T18:42:42.236Z,27.50
2018-06-28T18:45:19.782Z,27.40
2018-06-28T18:47:50.943Z,27.40
2018-06-28T18:50:23.404Z,27.30
2018-06-28T18:52:53.931Z,27.20
2018-06-28T18:55:24.994Z,27.20
2018-06-28T18:57:56.510Z,27.10
2018-06-28T19:00:27.262Z,27.10
2018-06-28T19:02:58.332Z,27.00
2018-06-28T19:05:29.045Z,27.00
2018-06-28T19:07:59.910Z,26.90
2018-06-28T19:10:37.466Z,26.80
2018-06-28T19:13:09.454Z,26.70
2018-06-28T19:15:44.997Z,26.70
2018-06-28T19:18:16.756Z,26.60
2018-06-28T19:20:52.324Z,26.50
2018-06-28T19:23:29.592Z,26.40
2018-06-28T19:26:00.614Z,26.30
2018-06-28T19:28:31.494Z,26.20
2018-06-28T19:31:07.620Z,26.10
2018-06-28T19:33:39.119Z,26.10
2018-06-28T19:36:10.139Z,26.00
2018-06-28T19:38:45.806Z,25.90
2018-06-28T19:41:21.558Z,25.80
2018-06-28T19:43:52.182Z,25.70
2018-06-28T19:46:22.756Z,25.60
2018-06-28T19:48:52.542Z,25.50
2018-06-28T19:51:27.036Z,25.40
2018-06-28T19:53:56.685Z,25.40
2018-06-28T19:56:26.059Z,25.30
2018-06-28T19:58:55.341Z,25.30
2018-06-28T20:01:29.831Z,25.20
2018-06-28T20:04:04.358Z,25.10
2018-06-28T20:06:33.585Z,25.00
2018-06-28T20:09:02.741Z,25.00
2018-06-28T20:11:31.939Z,24.90
2018-06-28T20:14:06.690Z,24.90
2018-06-28T20:16:41.031Z,24.80
2018-06-28T20:19:15.493Z,24.80
2018-06-28T20:21:44.768Z,24.80
2018-06-28T20:24:13.879Z,24.80
2018-06-28T20:26:48.343Z,24.80
2018-06-28T20:29:22.793Z,24.70
2018-06-28T20:31:57.351Z,24.70
2018-06-28T20:34:26.469Z,24.60
2018-06-28T20:36:55.545Z,24.50
2018-06-28T20:39:24.656Z,24.40
2018-06-28T20:41:53.794Z,24.50
2018-06-28T20:44:23.546Z,24.40
2018-06-28T20:46:52.656Z,24.30
2018-06-28T20:49:22.379Z,24.20
2018-06-28T20:51:51.973Z,24.20
2018-06-28T20:54:21.264Z,24.10
2018-06-28T20:56:50.564Z,24.10
2018-06-28T20:59:19.728Z,24.00
2018-06-28T21:01:48.898Z,24.10
2018-06-28T21:04:18.186Z,24.10
2018-06-28T21:06:47.959Z,24.10
2018-06-28T21:09:17.103Z,24.00
2018-06-28T21:11:46.287Z,24.00
2018-06-28T21:14:15.545Z,24.00
2018-06-28T21:16:44.779Z,23.80
2018-06-28T21:19:13.901Z,23.60
2018-06-28T21:21:43.040Z,23.60
2018-06-28T21:24:12.149Z,23.70
2018-06-28T21:26:41.542Z,23.70
2018-06-28T21:29:11.003Z,23.50
2018-06-28T21:31:40.205Z,23.50
2018-06-28T21:34:09.537Z,23.50
2018-06-28T21:36:38.655Z,23.30
2018-06-28T21:39:09.956Z,23.30
2018-06-28T21:41:39.223Z,23.30
2018-06-28T21:44:08.513Z,23.30
2018-06-28T21:46:37.825Z,23.20
2018-06-28T21:49:07.111Z,23.10
2018-06-28T21:51:36.221Z,23.00
2018-06-28T21:54:05.553Z,22.90
2018-06-28T21:56:34.785Z,22.80
2018-06-28T21:59:04.049Z,22.80
2018-06-28T22:01:33.461Z,22.80
2018-06-28T22:04:02.767Z,22.70
2018-06-28T22:06:31.983Z,22.60
2018-06-28T22:09:01.281Z,22.60
2018-06-28T22:11:30.743Z,22.60
2018-06-28T22:14:00.133Z,22.50
2018-06-28T22:16:29.376Z,22.50
2018-06-28T22:18:58.530Z,22.30
2018-06-28T22:21:27.611Z,22.30
2018-06-28T22:23:56.851Z,22.20
2018-06-28T22:26:25.982Z,22.10
2018-06-28T22:28:55.157Z,22.10
2018-06-28T22:31:24.386Z,22.10
2018-06-28T22:33:53.939Z,22.20
2018-06-28T22:36:23.211Z,22.10
2018-06-28T22:38:52.580Z,22.00
2018-06-28T22:41:21.943Z,21.90
2018-06-28T22:43:51.493Z,21.90
2018-06-28T22:46:20.847Z,21.80
2018-06-28T22:48:50.113Z,21.80
2018-06-28T22:51:19.288Z,21.70
2018-06-28T22:53:48.563Z,21.70
2018-06-28T22:56:18.050Z,21.60
2018-06-28T22:58:47.234Z,21.60
2018-06-28T23:01:16.371Z,21.50
2018-06-28T23:03:45.604Z,21.50
2018-06-28T23:06:14.659Z,21.40
2018-06-28T23:08:44.043Z,21.40
2018-06-28T23:11:13.286Z,21.40
2018-06-28T23:13:42.872Z,21.40
2018-06-28T23:16:12.042Z,21.30
2018-06-28T23:18:41.171Z,21.30
2018-06-28T23:21:10.271Z,21.40
2018-06-28T23:23:39.469Z,21.30
2018-06-28T23:26:08.817Z,21.30
2018-06-28T23:28:38.395Z,21.20
2018-06-28T23:31:07.619Z,21.10
2018-06-28T23:33:36.721Z,21.10
2018-06-28T23:36:06.132Z,21.10
2018-06-28T23:38:35.557Z,21.10
2018-06-28T23:41:04.925Z,21.00
2018-06-28T23:43:34.174Z,21.00
2018-06-28T23:46:03.431Z,20.90
2018-06-28T23:48:32.562Z,20.80
2018-06-28T23:51:01.918Z,20.70
2018-06-28T23:53:31.318Z,20.60
2018-06-28T23:56:00.854Z,20.60
2018-06-28T23:58:30.742Z,20.50
